Time;durP1;ratioP1;P1;durP2;ratioP2;P2;SDS_P1;SDS_P2;PMS_P1;PMS_P2;Temp;Humidity;BMP_temperature;BMP_pressure;BME280_temperature;BME280_humidity;BME280_pressure;Samples;Min_cycle;Max_cycle;Signal;HPM_P1;HPM_P2
2023/01/22 00:01:01;;;;;;;0.40;0.40;;;;;;;13.62;30.08;102617.88;5032819;28;20084;-54
2023/01/22 00:03:27;;;;;;;0.57;0.40;;;;;;;13.73;31.07;102622.81;5033165;28;20025;-55
2023/01/22 00:05:53;;;;;;;1.00;0.45;;;;;;;13.80;30.51;102622.91;5033361;28;20037;-55
2023/01/22 00:08:20;;;;;;;1.23;0.52;;;;;;;13.76;29.90;102618.91;5032869;28;20053;-55
2023/01/22 00:10:53;;;;;;;0.85;0.40;;;;;;;13.83;30.47;102622.53;5032645;28;20102;-55
2023/01/22 00:13:22;;;;;;;1.25;0.63;;;;;;;13.59;33.04;102621.75;5032436;28;20108;-55
2023/01/22 00:15:49;;;;;;;2.08;0.95;;;;;;;13.70;32.25;102607.00;5033120;28;20021;-55
2023/01/22 00:18:18;;;;;;;1.35;0.63;;;;;;;13.64;32.31;102613.97;5030463;28;20030;-56
2023/01/22 00:20:52;;;;;;;1.10;0.70;;;;;;;13.70;33.45;102610.53;5021418;28;20033;-55
2023/01/22 00:23:19;;;;;;;0.50;0.50;;;;;;;13.54;34.26;102596.41;5032485;28;20064;-56
2023/01/22 00:25:46;;;;;;;1.65;0.73;;;;;;;13.51;34.53;102602.16;5032341;28;20033;-56
2023/01/22 00:28:13;;;;;;;1.83;0.60;;;;;;;13.68;35.29;102592.91;5032419;28;20029;-55
2023/01/22 00:30:39;;;;;;;1.25;0.85;;;;;;;13.47;36.23;102586.38;5032271;28;20040;-55
2023/01/22 00:33:05;;;;;;;2.35;1.38;;;;;;;13.64;36.16;102583.53;5032448;28;20383;-55
2023/01/22 00:35:33;;;;;;;1.77;0.80;;;;;;;13.67;36.19;102589.38;5032046;28;20030;-56
2023/01/22 00:38:00;;;;;;;0.93;0.70;;;;;;;13.68;35.92;102588.38;5031867;28;20112;-55
2023/01/22 00:40:26;;;;;;;2.85;0.73;;;;;;;13.25;37.10;102592.63;5031818;28;20033;-55
2023/01/22 00:42:52;;;;;;;0.90;0.70;;;;;;;13.48;36.03;102603.34;5032332;28;20045;-54
2023/01/22 00:45:18;;;;;;;1.45;0.77;;;;;;;13.44;36.69;102600.22;5032335;28;20052;-55
2023/01/22 00:47:45;;;;;;;1.52;1.00;;;;;;;13.41;36.80;102599.72;5031919;28;20530;-54
2023/01/22 00:50:11;;;;;;;1.13;0.70;;;;;;;13.21;37.23;102607.44;5031327;28;20116;-55
2023/01/22 00:52:37;;;;;;;1.75;1.02;;;;;;;13.11;37.28;102614.91;5031941;28;20506;-56
2023/01/22 00:55:05;;;;;;;1.15;0.77;;;;;;;13.04;37.43;102604.00;5032068;28;20037;-55
2023/01/22 00:57:32;;;;;;;1.88;1.30;;;;;;;13.04;38.63;102597.81;5032151;28;20171;-55
2023/01/22 00:59:58;;;;;;;5.15;1.08;;;;;;;13.22;42.27;102605.63;5031972;28;20438;-55
2023/01/22 01:02:24;;;;;;;2.08;0.93;;;;;;;13.17;42.41;102600.75;5031721;28;20045;-55
2023/01/22 01:04:50;;;;;;;0.70;0.50;;;;;;;13.46;37.64;102606.22;5032108;28;20591;-55
2023/01/22 01:07:17;;;;;;;1.67;0.82;;;;;;;13.18;38.25;102603.25;5032159;28;20029;-55
2023/01/22 01:09:43;;;;;;;1.00;0.50;;;;;;;13.03;38.27;102588.06;5031265;28;20080;-55
2023/01/22 01:12:09;;;;;;;0.90;0.70;;;;;;;12.97;39.32;102588.78;5031583;28;20502;-56
2023/01/22 01:14:35;;;;;;;1.30;0.80;;;;;;;12.84;41.34;102592.91;5013939;28;20578;-56
2023/01/22 01:17:02;;;;;;;1.67;1.00;;;;;;;13.09;43.53;102598.09;4994824;28;20022;-56
2023/01/22 01:19:28;;;;;;;3.25;1.05;;;;;;;12.79;46.81;102592.59;5012133;28;20554;-55
2023/01/22 01:21:54;;;;;;;2.13;1.00;;;;;;;12.65;47.33;102596.88;5011800;28;20033;-56
2023/01/22 01:24:20;;;;;;;5.38;1.27;;;;;;;12.63;47.45;102588.16;5011990;28;20030;-56
2023/01/22 01:26:46;;;;;;;3.20;1.42;;;;;;;12.76;49.94;102590.25;5012115;28;20030;-54
2023/01/22 01:29:14;;;;;;;4.90;1.50;;;;;;;12.40;52.09;102592.66;5022250;28;20056;-55
2023/01/22 01:31:40;;;;;;;3.47;1.45;;;;;;;12.39;52.21;102594.50;5031239;28;20040;-55
2023/01/22 01:34:07;;;;;;;4.30;1.70;;;;;;;12.41;52.44;102592.47;5031728;28;20037;-56
2023/01/22 01:36:33;;;;;;;3.95;1.42;;;;;;;12.19;53.49;102595.94;5031406;28;20030;-55
2023/01/22 01:39:02;;;;;;;3.47;1.50;;;;;;;12.15;53.17;102587.38;5031728;28;20076;-54
2023/01/22 01:41:28;;;;;;;6.72;1.85;;;;;;;12.13;53.56;102586.72;5031536;28;20112;-53
2023/01/22 01:44:16;;;;;;;3.15;1.77;;;;;;;12.08;53.71;102599.00;5031582;28;20033;-56
2023/01/22 01:47:07;;;;;;;2.83;1.50;;;;;;;11.97;54.06;102596.69;5028594;28;20029;-56
2023/01/22 01:49:50;;;;;;;4.45;1.60;;;;;;;11.91;54.66;102592.00;5011664;28;20084;-56
2023/01/22 01:52:17;;;;;;;2.50;1.33;;;;;;;11.84;54.69;102598.06;5011308;28;20044;-55
2023/01/22 01:54:49;;;;;;;4.45;1.35;;;;;;;11.75;55.49;102593.69;5025796;28;20030;-55
2023/01/22 01:57:20;;;;;;;3.78;1.63;;;;;;;11.65;55.80;102598.38;5031511;28;20013;-56
2023/01/22 01:59:48;;;;;;;8.50;1.73;;;;;;;11.66;56.57;102596.53;5032302;28;20087;-55
2023/01/22 02:02:15;;;;;;;4.45;2.47;;;;;;;11.53;57.12;102610.47;5034288;28;20021;-55
2023/01/22 02:04:42;;;;;;;5.82;2.40;;;;;;;11.47;56.83;102605.78;5026612;28;20029;-55
2023/01/22 02:07:08;;;;;;;5.72;2.58;;;;;;;11.31;55.98;102612.81;5015865;28;20030;-53
2023/01/22 02:09:34;;;;;;;3.22;1.77;;;;;;;11.26;55.32;102617.84;5025708;28;20073;-56
2023/01/22 02:12:02;;;;;;;2.20;1.50;;;;;;;11.22;55.13;102618.38;5053304;28;20029;-57
2023/01/22 02:14:34;;;;;;;3.95;1.98;;;;;;;11.10;55.18;102615.16;5033505;28;20112;-56
2023/01/22 02:17:13;;;;;;;3.25;1.65;;;;;;;11.07;55.07;102620.88;5054968;28;20029;-54
2023/01/22 02:19:41;;;;;;;4.82;1.90;;;;;;;10.95;55.43;102622.19;5035162;28;20058;-53
2023/01/22 02:22:16;;;;;;;3.38;2.00;;;;;;;10.92;55.58;102628.69;5034282;28;20038;-54
2023/01/22 02:24:43;;;;;;;4.93;2.30;;;;;;;10.87;56.04;102624.84;5033671;28;20018;-54
2023/01/22 02:27:09;;;;;;;7.00;2.80;;;;;;;10.77;55.99;102623.16;5016905;28;20029;-53
2023/01/22 02:29:36;;;;;;;5.95;3.00;;;;;;;10.48;57.03;102630.75;5035004;28;20017;-53
2023/01/22 02:32:02;;;;;;;5.15;2.50;;;;;;;10.22;57.82;102620.94;5034667;28;20033;-54
2023/01/22 02:34:31;;;;;;;3.20;2.10;;;;;;;9.64;59.42;102626.06;5034917;28;20072;-54
2023/01/22 02:36:57;;;;;;;4.10;1.73;;;;;;;9.15;61.23;102629.19;5035400;28;20032;-55
2023/01/22 02:39:23;;;;;;;2.78;1.55;;;;;;;8.61;63.13;102633.66;5035205;28;20018;-54
2023/01/22 02:41:51;;;;;;;3.25;1.60;;;;;;;8.33;64.23;102629.22;5034997;28;20025;-55
2023/01/22 02:44:17;;;;;;;1.85;1.58;;;;;;;8.99;62.04;102631.69;5034455;28;20452;-54
2023/01/22 02:46:43;;;;;;;1.85;1.75;;;;;;;8.95;61.80;102627.66;5034548;28;20479;-54
2023/01/22 02:49:09;;;;;;;4.30;1.88;;;;;;;8.99;61.61;102627.22;5034852;28;20033;-55
2023/01/22 02:51:36;;;;;;;4.22;2.17;;;;;;;9.07;61.60;102628.28;5030025;28;20101;-54
2023/01/22 02:54:02;;;;;;;3.47;2.00;;;;;;;8.72;63.10;102621.91;5014031;28;20036;-55
2023/01/22 02:56:29;;;;;;;4.80;2.45;;;;;;;9.05;61.85;102619.56;5014339;28;20025;-55
2023/01/22 02:58:55;;;;;;;3.58;2.05;;;;;;;9.33;60.94;102618.50;5016616;28;20112;-55
2023/01/22 03:01:23;;;;;;;4.50;3.00;;;;;;;9.42;60.48;102614.03;5023079;28;20025;-53
2023/01/22 03:03:55;;;;;;;5.30;3.17;;;;;;;9.20;60.66;102618.03;5019404;28;20502;-53
2023/01/22 03:06:28;;;;;;;6.40;3.45;;;;;;;8.91;61.82;102621.78;5014497;28;20062;-54
2023/01/22 03:08:59;;;;;;;4.47;3.13;;;;;;;8.95;61.51;102609.81;5014659;28;20408;-54
2023/01/22 03:11:28;;;;;;;4.70;2.97;;;;;;;8.95;61.46;102612.47;5013481;28;20121;-55
2023/01/22 03:22:11;;;;;;;5.70;2.57;;;;;;;8.90;62.02;102606.75;5034073;28;20063;-55
2023/01/22 03:24:38;;;;;;;4.68;2.65;;;;;;;9.17;60.91;102597.00;5034015;28;20306;-57
2023/01/22 03:27:04;;;;;;;4.05;2.20;;;;;;;9.25;59.89;102605.91;5033819;28;20487;-56
2023/01/22 03:29:30;;;;;;;2.22;1.65;;;;;;;8.83;61.02;102605.69;5033852;28;20032;-56
2023/01/22 03:31:56;;;;;;;4.35;1.70;;;;;;;8.25;63.42;102599.81;5033467;28;20034;-57
2023/01/22 03:34:24;;;;;;;2.30;1.50;;;;;;;8.21;63.82;102601.91;5033834;28;20032;-58
2023/01/22 03:36:50;;;;;;;3.58;1.77;;;;;;;8.70;61.98;102595.34;5033301;28;20032;-57
2023/01/22 03:39:17;;;;;;;3.50;2.05;;;;;;;8.97;60.25;102593.63;5029358;28;20116;-57
2023/01/22 03:41:43;;;;;;;2.30;1.70;;;;;;;8.75;60.69;102586.06;5026264;28;20472;-57
2023/01/22 03:44:10;;;;;;;2.20;1.63;;;;;;;8.52;61.32;102581.16;5032978;28;20041;-56
2023/01/22 03:46:38;;;;;;;2.53;1.58;;;;;;;8.28;62.41;102584.34;5013156;28;20131;-56
2023/01/22 03:49:08;;;;;;;2.17;1.27;;;;;;;8.19;62.52;102588.72;5030342;28;20032;-57
2023/01/22 03:51:35;;;;;;;2.33;1.30;;;;;;;8.36;62.03;102588.97;5032738;28;20052;-56
2023/01/22 03:54:01;;;;;;;2.78;1.30;;;;;;;8.27;62.05;102576.47;5033311;28;20030;-57
2023/01/22 03:56:28;;;;;;;2.88;1.38;;;;;;;8.19;62.28;102579.88;5030006;28;20064;-57
2023/01/22 03:58:55;;;;;;;3.55;2.17;;;;;;;8.16;62.23;102583.72;5028827;28;20025;-57
2023/01/22 04:01:27;;;;;;;6.88;4.28;;;;;;;8.13;62.63;102591.16;5032579;28;20032;-57
2023/01/22 04:03:53;;;;;;;16.90;12.68;;;;;;;7.99;63.63;102581.78;5033132;28;20033;-57
2023/01/22 04:06:21;;;;;;;10.82;7.63;;;;;;;8.19;63.07;102574.56;5032845;28;20134;-57
2023/01/22 04:08:50;;;;;;;10.20;6.90;;;;;;;8.30;62.54;102573.53;5032345;28;20040;-57
2023/01/22 04:11:17;;;;;;;7.40;5.50;;;;;;;8.12;62.85;102568.97;5032288;28;20114;-57
2023/01/22 04:13:44;;;;;;;3.25;2.95;;;;;;;8.16;62.37;102572.16;5032909;28;20369;-56
2023/01/22 04:16:12;;;;;;;2.58;1.67;;;;;;;7.80;62.97;102566.72;5032764;28;20142;-56
2023/01/22 04:18:38;;;;;;;1.70;1.23;;;;;;;7.76;63.33;102567.97;5032592;28;20080;-56
2023/01/22 04:21:04;;;;;;;2.53;1.40;;;;;;;7.71;63.56;102566.72;5032313;28;20029;-57
2023/01/22 04:23:31;;;;;;;4.20;1.60;;;;;;;7.34;64.88;102562.22;5031456;28;20089;-57
2023/01/22 04:25:57;;;;;;;3.45;2.20;;;;;;;7.01;66.57;102566.16;5032371;28;20170;-57
2023/01/22 04:28:23;;;;;;;4.50;2.15;;;;;;;6.54;68.28;102569.47;5032440;28;20033;-57
2023/01/22 04:30:52;;;;;;;4.28;2.35;;;;;;;6.53;68.53;102573.09;5032319;28;20061;-56
2023/01/22 04:33:19;;;;;;;2.50;1.77;;;;;;;6.44;68.97;102573.06;5026644;28;20014;-56
2023/01/22 04:35:52;;;;;;;3.40;1.95;;;;;;;6.52;68.68;102570.59;5012452;28;20022;-57
2023/01/22 04:38:18;;;;;;;6.28;3.97;;;;;;;6.54;68.72;102564.13;5012515;28;20021;-57
2023/01/22 04:40:44;;;;;;;5.38;3.55;;;;;;;6.85;67.54;102562.22;5012444;28;20029;-56
2023/01/22 04:43:11;;;;;;;7.88;5.10;;;;;;;6.55;68.80;102555.19;5012267;28;20036;-56
2023/01/22 04:45:37;;;;;;;4.75;3.92;;;;;;;6.79;68.17;102551.31;5027929;28;20079;-56
2023/01/22 04:48:04;;;;;;;3.97;3.22;;;;;;;7.01;67.35;102556.34;5031985;28;20026;-56
2023/01/22 04:50:32;;;;;;;3.28;2.60;;;;;;;6.90;68.22;102543.19;5031981;28;20365;-57
2023/01/22 04:53:00;;;;;;;4.97;2.83;;;;;;;6.61;68.81;102548.50;5031967;28;20027;-56
2023/01/22 04:55:27;;;;;;;6.30;3.15;;;;;;;6.09;71.03;102558.41;5032232;28;20029;-57
2023/01/22 04:57:55;;;;;;;9.15;3.67;;;;;;;5.94;71.96;102555.31;5032000;28;20384;-56
2023/01/22 05:00:22;;;;;;;7.78;4.13;;;;;;;5.87;72.55;102550.59;5031808;28;20091;-57
2023/01/22 05:02:48;;;;;;;6.03;3.95;;;;;;;5.96;72.47;102550.69;5031903;28;20017;-56
2023/01/22 05:05:14;;;;;;;4.90;3.25;;;;;;;6.16;71.63;102548.09;5031879;28;20037;-56
2023/01/22 05:07:41;;;;;;;5.20;3.63;;;;;;;6.27;71.27;102548.84;5031631;28;20017;-55
2023/01/22 05:10:07;;;;;;;5.93;2.97;;;;;;;6.17;71.83;102563.94;5031156;28;20412;-56
2023/01/22 05:12:34;;;;;;;4.47;2.65;;;;;;;6.30;71.27;102567.16;5031650;28;20468;-56
2023/01/22 05:15:00;;;;;;;3.67;2.50;;;;;;;6.29;71.47;102557.50;5031532;28;20041;-56
2023/01/22 05:17:26;;;;;;;3.70;2.45;;;;;;;6.88;69.56;102567.28;5031375;28;20037;-55
2023/01/22 05:19:52;;;;;;;2.80;2.25;;;;;;;6.77;69.47;102559.41;5031350;28;20113;-55
2023/01/22 05:22:19;;;;;;;4.53;2.47;;;;;;;6.78;69.94;102549.63;5013905;28;20029;-54
2023/01/22 05:24:45;;;;;;;5.70;2.50;;;;;;;6.81;69.78;102550.16;5031842;28;20072;-55
2023/01/22 05:27:11;;;;;;;3.65;2.58;;;;;;;6.87;69.50;102549.59;5031703;28;20499;-54
2023/01/22 05:29:37;;;;;;;4.68;3.10;;;;;;;6.77;70.27;102548.75;5031495;28;20036;-56
2023/01/22 05:32:04;;;;;;;5.00;2.05;;;;;;;6.72;70.65;102545.69;5031205;28;20025;-57
2023/01/22 05:34:30;;;;;;;3.90;2.58;;;;;;;6.84;70.63;102544.56;5017562;28;20457;-56
2023/01/22 05:36:56;;;;;;;2.33;2.08;;;;;;;6.84;70.59;102552.56;5018508;28;20395;-57
2023/01/22 05:39:22;;;;;;;4.25;2.20;;;;;;;6.75;70.95;102549.88;5018620;28;20033;-57
2023/01/22 05:41:48;;;;;;;4.22;2.00;;;;;;;6.90;70.78;102547.66;5018619;28;20036;-57
2023/01/22 05:44:15;;;;;;;3.75;2.38;;;;;;;6.65;71.39;102549.88;5025084;28;20048;-57
2023/01/22 05:46:41;;;;;;;3.05;2.17;;;;;;;6.66;71.48;102548.88;5038082;28;20052;-57
2023/01/22 05:49:07;;;;;;;5.18;2.00;;;;;;;6.26;73.17;102559.59;5038045;28;20387;-57
2023/01/22 05:51:34;;;;;;;2.92;2.15;;;;;;;6.55;72.29;102554.34;5037595;28;20202;-57
2023/01/22 05:54:00;;;;;;;5.68;2.45;;;;;;;6.79;71.27;102553.97;5037952;28;20022;-57
2023/01/22 05:56:26;;;;;;;3.22;2.47;;;;;;;6.87;70.84;102554.94;5037944;28;20106;-57
2023/01/22 05:58:53;;;;;;;3.65;1.73;;;;;;;6.98;70.55;102563.75;5037822;28;20068;-57
2023/01/22 06:01:19;;;;;;;3.40;2.20;;;;;;;7.29;69.36;102559.97;5037808;28;20132;-57
2023/01/22 06:03:45;;;;;;;4.13;2.65;;;;;;;7.22;69.48;102564.19;5037887;28;20025;-57
2023/01/22 06:06:14;;;;;;;5.28;2.78;;;;;;;7.01;70.66;102556.34;5037754;28;20459;-57
2023/01/22 06:08:41;;;;;;;5.03;2.58;;;;;;;7.03;70.36;102562.34;5037614;28;20072;-57
2023/01/22 06:11:11;;;;;;;3.85;2.15;;;;;;;7.03;70.26;102562.34;5037983;28;20499;-55
2023/01/22 06:13:38;;;;;;;6.22;2.72;;;;;;;7.06;70.20;102554.09;5037850;28;20041;-54
2023/01/22 06:16:06;;;;;;;4.47;2.55;;;;;;;7.14;69.86;102546.22;5037152;28;20551;-57
2023/01/22 06:18:33;;;;;;;3.78;2.10;;;;;;;6.76;71.19;102551.56;5037271;28;20061;-57
2023/01/22 06:21:04;;;;;;;5.72;2.00;;;;;;;6.61;72.10;102554.66;5037375;28;20033;-57
2023/01/22 06:23:30;;;;;;;4.25;1.90;;;;;;;6.85;71.06;102548.91;5037433;28;20063;-57
2023/01/22 06:25:58;;;;;;;3.38;1.80;;;;;;;6.95;70.85;102545.44;5036913;28;20030;-57
2023/01/22 06:28:25;;;;;;;4.55;1.67;;;;;;;6.92;70.86;102527.91;5037719;28;20034;-57
2023/01/22 06:30:54;;;;;;;4.15;2.03;;;;;;;6.90;70.86;102537.84;5037172;28;20069;-57
2023/01/22 06:33:20;;;;;;;4.60;1.88;;;;;;;6.84;71.31;102531.28;5037689;28;20483;-58
2023/01/22 06:35:46;;;;;;;4.95;2.67;;;;;;;6.80;71.30;102531.69;5036857;28;20033;-57
2023/01/22 06:38:12;;;;;;;4.45;2.25;;;;;;;6.59;71.45;102534.47;5037741;28;20065;-57
2023/01/22 06:40:39;;;;;;;3.72;2.45;;;;;;;6.66;71.43;102534.75;5037061;28;20025;-57
2023/01/22 06:43:07;;;;;;;5.60;2.25;;;;;;;6.87;70.51;102538.97;5037614;28;20053;-57
2023/01/22 06:45:34;;;;;;;4.03;2.40;;;;;;;6.89;70.51;102538.84;5036503;28;20028;-57
2023/01/22 06:48:00;;;;;;;3.85;2.33;;;;;;;6.90;70.49;102543.19;5033256;28;20104;-57
2023/01/22 06:50:26;;;;;;;5.85;2.15;;;;;;;6.88;70.42;102539.78;5033930;28;20029;-57
2023/01/22 06:52:52;;;;;;;6.10;2.15;;;;;;;6.68;71.26;102538.13;5034436;28;20025;-57
2023/01/22 06:55:18;;;;;;;5.15;2.85;;;;;;;6.55;71.78;102533.06;5033571;28;20479;-57
2023/01/22 06:57:45;;;;;;;5.85;2.72;;;;;;;6.88;70.79;102539.78;5034374;28;20062;-57
2023/01/22 07:00:11;;;;;;;3.05;2.30;;;;;;;6.79;70.56;102530.00;5033436;28;20026;-57
2023/01/22 07:02:37;;;;;;;5.40;2.70;;;;;;;6.87;70.27;102535.47;5033681;28;20043;-57
2023/01/22 07:05:04;;;;;;;3.28;2.20;;;;;;;6.87;70.28;102522.16;5033212;28;20085;-57
2023/01/22 07:07:30;;;;;;;2.33;2.00;;;;;;;6.87;69.96;102530.13;5034086;28;20189;-57
2023/01/22 07:09:56;;;;;;;4.03;2.15;;;;;;;6.97;69.53;102530.13;5033428;28;20037;-57
2023/01/22 07:12:23;;;;;;;3.10;1.90;;;;;;;6.86;69.71;102531.13;5033979;28;20041;-57
2023/01/22 07:14:49;;;;;;;4.88;2.10;;;;;;;7.10;69.02;102534.19;5033189;28;20136;-57
2023/01/22 07:17:15;;;;;;;3.20;2.05;;;;;;;7.06;68.80;102531.97;5033793;28;20029;-57
2023/01/22 07:19:41;;;;;;;4.85;3.05;;;;;;;6.95;69.26;102532.13;5032764;28;20021;-57
2023/01/22 07:22:08;;;;;;;5.90;2.83;;;;;;;6.82;69.47;102524.38;5033721;28;20479;-57
2023/01/22 07:24:34;;;;;;;5.05;3.28;;;;;;;6.89;69.59;102536.19;5033361;28;20021;-57
2023/01/22 07:27:01;;;;;;;8.25;2.95;;;;;;;6.90;69.48;102529.03;5033916;28;20029;-57
2023/01/22 07:29:28;;;;;;;6.45;3.03;;;;;;;6.98;69.40;102534.47;5033434;28;20331;-57
2023/01/22 07:31:54;;;;;;;5.22;3.40;;;;;;;6.87;69.38;102536.28;5033231;28;20399;-57
2023/01/22 07:34:20;;;;;;;6.28;3.42;;;;;;;6.66;71.05;102530.25;5032883;28;20120;-57
2023/01/22 07:36:46;;;;;;;6.10;3.20;;;;;;;6.35;72.96;102524.22;5032705;28;20030;-57
2023/01/22 07:39:13;;;;;;;5.20;3.10;;;;;;;6.50;72.09;102530.81;5033117;28;20026;-57
2023/01/22 07:41:39;;;;;;;3.00;2.20;;;;;;;6.82;70.92;102535.03;5033427;28;20091;-57
2023/01/22 07:44:07;;;;;;;4.00;2.45;;;;;;;6.60;71.02;102513.03;5032885;28;20595;-57
2023/01/22 07:46:37;;;;;;;3.63;1.83;;;;;;;6.62;71.04;102518.22;5045006;23;20056;-57
2023/01/22 07:49:05;;;;;;;4.28;1.90;;;;;;;6.58;71.22;102511.50;5053223;28;20391;-57
2023/01/22 07:51:31;;;;;;;2.67;1.92;;;;;;;6.53;71.21;102509.25;5052315;28;20033;-57
2023/01/22 07:53:57;;;;;;;3.72;1.77;;;;;;;6.55;71.02;102509.97;5052864;28;20440;-57
2023/01/22 07:56:24;;;;;;;4.60;1.63;;;;;;;6.41;71.55;102515.69;5052697;28;20039;-56
2023/01/22 07:58:50;;;;;;;3.25;1.90;;;;;;;6.46;71.35;102513.44;5053135;28;20037;-57
2023/01/22 08:01:16;;;;;;;3.83;1.58;;;;;;;6.57;70.97;102509.81;5052026;28;20029;-57
2023/01/22 08:03:44;;;;;;;3.42;1.55;;;;;;;6.60;70.93;102501.56;5052883;28;20017;-57
2023/01/22 08:06:14;;;;;;;3.28;1.70;;;;;;;6.46;71.54;102500.16;5051794;28;20021;-57
2023/01/22 08:08:41;;;;;;;3.15;1.77;;;;;;;6.49;71.05;102499.84;5052924;28;20505;-57
2023/01/22 08:11:08;;;;;;;3.72;2.40;;;;;;;6.49;71.18;102499.84;5052164;28;20033;-57
2023/01/22 08:13:34;;;;;;;4.20;2.85;;;;;;;6.51;71.13;102489.09;5052956;28;20464;-58
2023/01/22 08:16:00;;;;;;;10.13;3.67;;;;;;;6.33;71.80;102495.09;5052227;28;20032;-57
2023/01/22 08:18:26;;;;;;;4.95;2.88;;;;;;;6.41;71.64;102494.41;5052593;28;20444;-57
2023/01/22 08:20:53;;;;;;;6.55;2.25;;;;;;;6.31;72.27;102493.53;5051094;28;20028;-57
2023/01/22 08:23:19;;;;;;;4.35;2.42;;;;;;;6.38;71.80;102486.69;5052277;28;20217;-57
2023/01/22 08:25:45;;;;;;;4.47;2.30;;;;;;;6.35;71.86;102484.31;5052443;28;20102;-57
2023/01/22 08:28:12;;;;;;;5.10;2.25;;;;;;;6.33;71.59;102486.28;5052525;28;20502;-57
2023/01/22 08:30:38;;;;;;;4.20;2.35;;;;;;;6.32;71.56;102477.44;5051259;28;20036;-57
2023/01/22 08:33:05;;;;;;;4.25;2.40;;;;;;;6.34;71.52;102466.69;5051422;28;20044;-56
2023/01/22 08:35:31;;;;;;;3.13;2.30;;;;;;;6.26;71.77;102470.03;5051610;28;20021;-57
2023/01/22 08:37:59;;;;;;;5.55;2.25;;;;;;;6.32;71.76;102468.63;5052815;28;20029;-57
2023/01/22 08:40:25;;;;;;;3.40;2.17;;;;;;;6.27;71.78;102468.19;5051754;28;20028;-57
2023/01/22 08:42:53;;;;;;;5.47;2.30;;;;;;;6.31;71.92;102473.09;5052399;28;20433;-55
2023/01/22 08:45:19;;;;;;;3.60;2.38;;;;;;;6.34;71.84;102464.03;5051381;28;20021;-55
2023/01/22 08:47:46;;;;;;;7.57;2.78;;;;;;;6.22;71.76;102462.44;5051816;28;20049;-55
2023/01/22 08:50:12;;;;;;;5.25;2.40;;;;;;;6.15;71.85;102471.97;5051628;28;20028;-55
2023/01/22 08:52:38;;;;;;;5.47;2.60;;;;;;;6.11;71.99;102474.06;5050705;28;20494;-55
2023/01/22 08:55:08;;;;;;;4.93;2.40;;;;;;;6.09;72.30;102474.19;5051906;28;20044;-55
2023/01/22 08:57:35;;;;;;;5.10;2.47;;;;;;;6.03;72.50;102472.06;5031890;28;20415;-54
2023/01/22 09:00:04;;;;;;;4.72;2.78;;;;;;;6.02;72.55;102469.56;5032125;28;20029;-55
2023/01/22 09:02:30;;;;;;;8.00;3.13;;;;;;;6.02;72.45;102462.44;5051345;28;20032;-55
2023/01/22 09:04:56;;;;;;;5.35;3.30;;;;;;;5.96;72.63;102462.97;5051677;28;20029;-55
2023/01/22 09:07:23;;;;;;;14.00;5.95;;;;;;;5.91;72.75;102456.34;5050735;28;20093;-55
2023/01/22 09:09:49;;;;;;;6.57;4.65;;;;;;;5.85;73.27;102447.09;5050899;28;20475;-57
2023/01/22 09:12:15;;;;;;;7.55;3.80;;;;;;;5.87;73.30;102446.97;5051360;28;20040;-56
2023/01/22 09:14:41;;;;;;;8.48;3.50;;;;;;;5.83;73.37;102447.25;5051759;28;20029;-56
2023/01/22 09:17:08;;;;;;;5.03;3.03;;;;;;;5.88;73.39;102445.97;5051060;28;20033;-55
2023/01/22 09:19:34;;;;;;;5.13;3.00;;;;;;;5.88;73.42;102443.31;5051196;28;20068;-56
2023/01/22 09:22:05;;;;;;;6.78;2.80;;;;;;;5.79;74.29;102445.00;5051268;28;20029;-56
2023/01/22 09:24:32;;;;;;;5.78;2.58;;;;;;;5.80;74.23;102444.00;5051617;28;20029;-56
2023/01/22 09:26:59;;;;;;;4.65;2.95;;;;;;;5.77;74.51;102445.13;5050784;28;20078;-56
2023/01/22 09:29:25;;;;;;;9.55;3.03;;;;;;;5.78;74.49;102448.63;5051190;28;20028;-55
2023/01/22 09:31:52;;;;;;;5.70;3.00;;;;;;;5.81;74.70;102445.69;5050586;28;20029;-56
2023/01/22 09:34:18;;;;;;;5.55;3.03;;;;;;;5.80;75.10;102441.34;5037183;28;20030;-56
2023/01/22 09:36:44;;;;;;;8.60;3.25;;;;;;;5.81;75.21;102443.88;5039417;28;20029;-55
2023/01/22 09:39:11;;;;;;;8.88;3.10;;;;;;;5.80;75.35;102449.31;5051456;28;20029;-56
2023/01/22 09:41:46;;;;;;;5.70;3.47;;;;;;;5.94;74.87;102446.34;5050844;28;20025;-55
2023/01/22 09:44:18;;;;;;;6.82;3.33;;;;;;;5.93;75.17;102452.59;5051560;28;20021;-55
2023/01/22 09:46:50;;;;;;;16.17;3.47;;;;;;;5.85;75.37;102449.75;5050536;28;20072;-56
2023/01/22 09:49:24;;;;;;;4.60;2.85;;;;;;;5.81;75.56;102458.97;5051026;28;20025;-56
2023/01/22 09:52:01;;;;;;;5.20;3.13;;;;;;;5.86;75.72;102447.94;5050960;28;20047;-56
2023/01/22 09:54:29;;;;;;;7.88;3.20;;;;;;;5.94;75.44;102453.44;5051171;28;20025;-55
2023/01/22 09:57:01;;;;;;;6.35;3.20;;;;;;;5.86;75.79;102440.81;5051088;28;20047;-56
2023/01/22 09:59:44;;;;;;;7.35;3.10;;;;;;;5.86;75.85;102443.47;5050958;28;20021;-56
2023/01/22 10:02:34;;;;;;;7.00;3.35;;;;;;;5.88;76.10;102438.00;5050312;28;20456;-56
2023/01/22 10:05:09;;;;;;;6.18;2.95;;;;;;;5.88;76.18;102438.00;5040941;28;20075;-56
2023/01/22 10:07:40;;;;;;;7.43;2.80;;;;;;;5.96;75.93;102428.44;5050575;28;20028;-55
2023/01/22 10:10:23;;;;;;;6.82;2.80;;;;;;;6.00;76.04;102432.50;5051116;28;20191;-55
2023/01/22 10:12:57;;;;;;;8.82;2.85;;;;;;;6.03;76.22;102426.88;5050617;28;20617;-56
2023/01/22 10:15:24;;;;;;;5.97;3.03;;;;;;;5.95;76.38;102429.41;5032951;28;20037;-56
2023/01/22 10:17:54;;;;;;;5.80;3.08;;;;;;;5.90;76.41;102422.78;5037511;28;20098;-55
2023/01/22 10:20:23;;;;;;;6.65;3.35;;;;;;;5.85;76.90;102414.38;5050862;28;20516;-55
2023/01/22 10:22:54;;;;;;;6.95;3.35;;;;;;;5.85;77.07;102415.22;5043590;28;20072;-55
2023/01/22 10:25:21;;;;;;;7.57;3.50;;;;;;;6.00;76.49;102407.75;5034763;28;20160;-55
2023/01/22 10:27:58;;;;;;;7.63;2.95;;;;;;;5.87;77.24;102397.31;5051372;28;20029;-56
2023/01/22 10:30:27;;;;;;;7.43;3.13;;;;;;;5.85;77.25;102406.41;5054714;28;20040;-55
2023/01/22 10:33:05;;;;;;;7.28;3.10;;;;;;;5.87;76.91;102410.59;5054165;28;20119;-56
2023/01/22 10:35:42;;;;;;;5.45;3.03;;;;;;;5.73;77.58;102403.03;5054585;28;20037;-56
2023/01/22 10:38:24;;;;;;;8.95;3.17;;;;;;;5.77;77.43;102407.94;5034524;28;20056;-55
2023/01/22 10:40:56;;;;;;;6.28;2.53;;;;;;;5.79;77.38;102407.78;5035583;28;20044;-55
2023/01/22 10:43:36;;;;;;;5.95;2.35;;;;;;;5.78;77.51;102400.81;5051213;28;20395;-55
2023/01/22 10:46:19;;;;;;;6.70;2.85;;;;;;;5.78;77.60;102403.47;5054428;28;20040;-56
2023/01/22 10:49:01;;;;;;;7.07;2.97;;;;;;;5.72;77.63;102399.53;5054327;28;20103;-55
2023/01/22 10:51:35;;;;;;;5.50;2.70;;;;;;;5.68;77.60;102400.78;5053675;28;20044;-55
2023/01/22 10:54:02;;;;;;;5.30;2.72;;;;;;;5.67;77.51;102392.94;5054505;28;20041;-56
2023/01/22 10:56:37;;;;;;;5.55;2.90;;;;;;;5.64;77.13;102395.88;5051782;28;20053;-56
2023/01/22 10:59:19;;;;;;;9.07;3.03;;;;;;;5.90;76.82;102391.72;5053456;28;20421;-56
2023/01/22 11:01:47;;;;;;;8.48;3.67;;;;;;;5.72;77.17;102393.34;5053223;28;20052;-56
2023/01/22 11:04:21;;;;;;;10.52;3.40;;;;;;;5.58;77.86;102397.25;5047619;28;20036;-55
2023/01/22 11:06:52;;;;;;;6.18;3.08;;;;;;;5.71;77.20;102392.53;5053797;28;20140;-56
2023/01/22 11:09:33;;;;;;;7.60;3.78;;;;;;;5.50;77.71;102383.81;5053700;28;20028;-56
2023/01/22 11:12:28;;;;;;;7.75;3.20;;;;;;;5.40;78.07;102378.47;5053126;28;20535;-56
2023/01/22 11:15:28;;;;;;;9.52;3.58;;;;;;;5.69;76.42;102375.06;5042972;28;20038;-55
2023/01/22 11:18:00;;;;;;;4.97;2.67;;;;;;;5.44;76.76;102385.19;5033718;28;20040;-56
2023/01/22 11:20:41;;;;;;;5.10;3.03;;;;;;;5.30;76.95;102373.09;5034083;28;20020;-55
2023/01/22 11:23:10;;;;;;;5.82;3.10;;;;;;;5.40;76.26;102373.16;5050973;28;20059;-56
2023/01/22 11:26:11;;;;;;;5.32;2.97;;;;;;;5.20;76.85;102368.72;5053545;28;20526;-55
2023/01/22 11:29:05;;;;;;;4.65;2.55;;;;;;;5.21;77.46;102355.31;5053609;28;20048;-56
2023/01/22 11:31:49;;;;;;;6.63;2.75;;;;;;;5.45;77.15;102348.84;5053117;28;20052;-55
2023/01/22 11:34:51;;;;;;;5.50;3.17;;;;;;;5.06;77.84;102351.38;5052604;28;20025;-55
2023/01/22 11:37:27;;;;;;;5.75;2.95;;;;;;;5.10;78.12;102351.91;5053239;28;20040;-55
2023/01/22 11:40:00;;;;;;;7.05;3.13;;;;;;;4.78;79.84;102347.59;5052667;28;20506;-55
2023/01/22 11:42:46;;;;;;;3.95;3.33;;;;;;;5.03;78.71;102335.69;5053252;28;20029;-55
2023/01/22 11:45:53;;;;;;;7.28;3.67;;;;;;;4.68;80.49;102338.75;5051194;28;20037;-56
2023/01/22 11:48:42;;;;;;;5.60;3.00;;;;;;;4.80;79.66;102335.03;5052941;28;20106;-55